Terminal Aerodrome Forecast
Issued by NWS

Home | Current Version | Previous Version | Graphics & Text | Print | Product List | Glossary Off
Versions: 1 2 3 4 5 6 7 8 9 10 11 12 13 14 15 16 17 18 19 20 21 22 23 24 25 26 27 28 29 30 31 32 33 34 35 36 37 38 39 40 41 42 43 44 45 46 47 48 49 50

542
FTUS43 KDDC 292030 AAB
TAFHYS
TAF AMD
KHYS 292030Z 2921/3018 06025G31KT P6SM OVC007
     FM292300 05015G27KT 2SM -TSRA OVC007CB
     FM300300 02014KT 3SM -SHRA OVC008
     FM300700 31012KT P6SM VCSH OVC003
     FM301700 29016KT P6SM VCSH BKN015=

USA.gov is the U.S. government's official web portal to all federal, state and local government web resources and services.